createdAt,value
2022-08-27T00:00:44.585Z,19.87
2022-08-27T00:03:50.590Z,19.84
2022-08-27T00:07:00.402Z,19.81
2022-08-27T00:10:10.652Z,19.77
2022-08-27T00:13:18.448Z,19.72
2022-08-27T00:16:24.808Z,19.66
2022-08-27T00:19:31.851Z,19.63
2022-08-27T00:22:41.627Z,19.59
2022-08-27T00:25:49.455Z,19.55
2022-08-27T00:28:56.025Z,19.53
2022-08-27T00:32:03.617Z,19.52
2022-08-27T00:35:11.146Z,19.49
2022-08-27T00:38:21.667Z,19.46
2022-08-27T00:41:28.365Z,19.44
2022-08-27T00:44:35.774Z,19.42
2022-08-27T00:47:49.991Z,19.40
2022-08-27T00:51:03.100Z,19.41
2022-08-27T00:54:16.084Z,19.39
2022-08-27T00:57:25.801Z,19.35
2022-08-27T01:00:31.947Z,19.33
2022-08-27T01:03:39.617Z,19.29
2022-08-27T01:06:45.504Z,19.27
2022-08-27T01:09:56.713Z,19.25
2022-08-27T01:13:03.370Z,19.22
2022-08-27T01:16:12.426Z,19.21
2022-08-27T01:19:25.015Z,19.18
2022-08-27T01:22:39.504Z,19.15
2022-08-27T01:25:49.012Z,19.15
2022-08-27T01:28:56.745Z,19.13
2022-08-27T01:32:10.387Z,19.09
2022-08-27T01:35:18.285Z,19.08
2022-08-27T01:38:30.788Z,19.05
2022-08-27T01:41:41.190Z,19.05
2022-08-27T01:44:50.131Z,19.04
2022-08-27T01:47:57.408Z,19.01
2022-08-27T01:51:03.525Z,19.01
2022-08-27T01:54:11.146Z,19.01
2022-08-27T01:57:24.062Z,19.02
2022-08-27T02:00:35.022Z,19.00
2022-08-27T02:03:43.103Z,19.01
2022-08-27T02:06:50.087Z,19.00
2022-08-27T02:09:56.560Z,19.00
2022-08-27T02:13:07.282Z,18.97
2022-08-27T02:16:13.534Z,18.94
2022-08-27T02:19:21.765Z,18.90
2022-08-27T02:22:28.052Z,18.91
2022-08-27T02:25:35.171Z,18.91
2022-08-27T02:28:44.012Z,18.91
2022-08-27T02:31:50.985Z,18.90
2022-08-27T02:34:57.106Z,18.89
2022-08-27T02:38:06.145Z,18.85
2022-08-27T02:41:12.103Z,18.89
2022-08-27T02:44:21.673Z,18.86
2022-08-27T02:47:27.805Z,18.81
2022-08-27T02:50:35.918Z,18.77
2022-08-27T02:53:44.540Z,18.75
2022-08-27T02:56:53.215Z,18.71
2022-08-27T03:00:03.133Z,18.68
2022-08-27T03:03:10.883Z,18.62
2022-08-27T03:06:17.314Z,18.59
2022-08-27T03:09:24.708Z,18.57
2022-08-27T03:12:30.640Z,18.53
2022-08-27T03:15:40.361Z,18.50
2022-08-27T03:18:46.261Z,18.48
2022-08-27T03:21:54.655Z,18.46
2022-08-27T03:25:01.210Z,18.44
2022-08-27T03:28:22.561Z,18.40
2022-08-27T03:31:32.342Z,18.39
2022-08-27T03:34:39.222Z,18.38
2022-08-27T03:37:45.345Z,18.34
2022-08-27T03:40:52.622Z,18.31
2022-08-27T03:43:58.727Z,18.29
2022-08-27T03:47:09.704Z,18.26
2022-08-27T03:50:15.843Z,18.23
2022-08-27T03:53:23.558Z,18.22
2022-08-27T03:56:29.442Z,18.20
2022-08-27T03:59:36.718Z,18.17
2022-08-27T04:02:46.581Z,18.18
2022-08-27T04:05:56.830Z,18.18
2022-08-27T04:09:03.408Z,18.19
2022-08-27T04:12:11.980Z,18.22
2022-08-27T04:15:17.915Z,18.27
2022-08-27T04:18:27.654Z,18.30
2022-08-27T04:21:34.069Z,18.33
2022-08-27T04:24:41.274Z,18.34
2022-08-27T04:27:48.302Z,18.39
2022-08-27T04:30:55.085Z,18.46
2022-08-27T04:34:05.214Z,18.53
2022-08-27T04:37:11.978Z,18.59
2022-08-27T04:40:17.985Z,18.63
2022-08-27T04:43:25.331Z,18.69
2022-08-27T04:46:33.383Z,18.75
2022-08-27T04:49:43.761Z,18.82
2022-08-27T04:52:49.871Z,18.87
2022-08-27T04:55:59.378Z,18.94
2022-08-27T04:59:10.226Z,19.02
2022-08-27T05:02:17.842Z,19.09
2022-08-27T05:05:26.672Z,19.17
2022-08-27T05:08:34.246Z,19.22
2022-08-27T05:11:42.279Z,19.25
2022-08-27T05:14:49.076Z,19.33
2022-08-27T05:17:55.186Z,19.41
2022-08-27T05:21:06.187Z,19.50
2022-08-27T05:24:12.594Z,19.57
2022-08-27T05:27:19.619Z,19.64
2022-08-27T05:30:25.779Z,19.69
2022-08-27T05:33:33.518Z,19.78
2022-08-27T05:36:49.133Z,19.88
2022-08-27T05:39:56.527Z,19.99
2022-08-27T05:43:03.111Z,20.10
2022-08-27T05:46:12.320Z,20.21
2022-08-27T05:49:18.713Z,20.32
2022-08-27T05:52:29.054Z,20.44
2022-08-27T05:55:40.389Z,20.57
2022-08-27T05:59:03.359Z,20.71
2022-08-27T06:02:09.710Z,20.77
2022-08-27T06:05:16.855Z,20.86
2022-08-27T06:08:26.221Z,20.96
2022-08-27T06:11:33.057Z,21.01
2022-08-27T06:14:39.805Z,21.08
2022-08-27T06:17:46.508Z,21.11
2022-08-27T06:20:52.637Z,21.18
2022-08-27T06:24:03.368Z,21.22
2022-08-27T06:27:09.610Z,21.28
2022-08-27T06:30:17.662Z,21.33
2022-08-27T06:33:23.959Z,21.39
2022-08-27T06:36:32.762Z,21.49
2022-08-27T06:39:42.467Z,21.60
2022-08-27T06:42:50.016Z,21.70
2022-08-27T06:45:56.710Z,21.80
2022-08-27T06:49:06.470Z,21.90
2022-08-27T06:52:12.801Z,21.96
2022-08-27T06:55:22.545Z,22.04
2022-08-27T06:58:28.385Z,22.08
2022-08-27T07:01:37.775Z,22.10
2022-08-27T07:04:43.718Z,22.14
2022-08-27T07:07:50.826Z,22.16
2022-08-27T07:11:03.132Z,22.24
2022-08-27T07:14:11.836Z,22.33
2022-08-27T07:17:17.768Z,22.46
2022-08-27T07:20:25.589Z,22.49
2022-08-27T07:23:31.454Z,22.52
2022-08-27T07:26:44.600Z,22.61
2022-08-27T07:29:50.849Z,22.71
2022-08-27T07:32:57.691Z,22.74
2022-08-27T07:36:04.192Z,22.84
2022-08-27T07:39:14.119Z,22.92
2022-08-27T07:42:53.486Z,23.02
2022-08-27T07:46:05.126Z,23.12
2022-08-27T07:49:11.311Z,23.23
2022-08-27T07:52:18.667Z,23.28
2022-08-27T07:55:24.504Z,23.34
2022-08-27T07:58:34.054Z,23.41
2022-08-27T08:01:42.796Z,23.44
2022-08-27T08:04:49.932Z,23.50
2022-08-27T08:07:56.096Z,23.55
2022-08-27T08:11:04.014Z,23.59
2022-08-27T08:14:12.790Z,23.65
2022-08-27T08:17:19.545Z,23.72
2022-08-27T08:20:54.315Z,23.78
2022-08-27T08:23:52.473Z,23.85
2022-08-27T08:26:58.345Z,23.93
2022-08-27T08:30:10.499Z,24.02
2022-08-27T08:33:17.411Z,24.09
2022-08-27T08:36:24.179Z,24.15
2022-08-27T08:39:30.108Z,24.17
2022-08-27T08:42:50.557Z,24.25
2022-08-27T08:46:08.092Z,24.34
2022-08-27T08:49:24.648Z,24.40
2022-08-27T08:52:42.975Z,24.45
2022-08-27T08:55:54.818Z,24.51
2022-08-27T08:59:06.208Z,24.55
2022-08-27T09:02:18.434Z,24.65
2022-08-27T09:05:27.469Z,24.66
2022-08-27T09:08:41.386Z,24.71
2022-08-27T09:11:56.401Z,24.75
2022-08-27T09:15:09.354Z,24.78
2022-08-27T09:18:21.686Z,24.80
2022-08-27T09:21:39.328Z,24.84
2022-08-27T09:24:56.184Z,24.89
2022-08-27T09:28:27.668Z,24.92
2022-08-27T09:31:41.111Z,24.97
2022-08-27T09:34:52.287Z,25.04
2022-08-27T09:38:00.093Z,25.06
2022-08-27T09:41:11.499Z,25.01
2022-08-27T09:44:23.064Z,25.04
2022-08-27T09:47:30.461Z,25.06
2022-08-27T09:50:43.837Z,25.11
2022-08-27T09:53:54.924Z,25.15
2022-08-27T09:57:01.143Z,25.17
2022-08-27T10:00:12.660Z,25.16
2022-08-27T10:03:18.875Z,25.19
2022-08-27T10:06:34.113Z,25.38
2022-08-27T10:09:50.862Z,25.41
2022-08-27T10:13:10.599Z,25.41
2022-08-27T10:16:39.726Z,25.45
2022-08-27T10:19:58.226Z,25.47
2022-08-27T10:23:21.171Z,25.43
2022-08-27T10:26:33.684Z,25.42
2022-08-27T10:29:50.395Z,25.43
2022-08-27T10:33:07.628Z,25.46
2022-08-27T10:36:29.702Z,25.49
2022-08-27T10:39:53.076Z,25.49
2022-08-27T10:43:14.319Z,25.52
2022-08-27T10:46:50.552Z,25.61
2022-08-27T10:50:13.385Z,25.63
2022-08-27T10:54:06.010Z,25.71
2022-08-27T10:57:53.194Z,25.82
2022-08-27T11:00:51.598Z,25.86
2022-08-27T11:04:03.511Z,25.87
2022-08-27T11:07:17.848Z,25.87
2022-08-27T11:10:28.473Z,25.93
2022-08-27T11:13:41.464Z,26.02
2022-08-27T11:16:53.002Z,26.09
2022-08-27T11:20:07.024Z,26.20
2022-08-27T11:23:18.393Z,26.28
2022-08-27T11:26:25.117Z,26.36
2022-08-27T11:29:38.190Z,26.39
2022-08-27T11:32:58.163Z,26.39
2022-08-27T11:36:33.625Z,26.42
2022-08-27T11:39:55.009Z,26.48
2022-08-27T11:43:07.453Z,26.56
2022-08-27T11:46:26.558Z,26.63
2022-08-27T11:49:46.814Z,26.68
2022-08-27T11:53:12.931Z,26.76
2022-08-27T11:56:24.363Z,26.78
2022-08-27T11:59:36.930Z,26.81
2022-08-27T12:02:46.060Z,26.85
2022-08-27T12:06:11.738Z,26.87
2022-08-27T12:09:20.750Z,26.89
2022-08-27T12:12:37.497Z,26.94
2022-08-27T12:16:03.463Z,27.01
2022-08-27T12:19:25.966Z,27.02
2022-08-27T12:23:04.637Z,27.02
2022-08-27T12:26:35.722Z,27.04
2022-08-27T12:29:44.832Z,27.05
2022-08-27T12:32:54.697Z,27.06
2022-08-27T12:36:12.363Z,27.10
2022-08-27T12:39:22.431Z,27.11
2022-08-27T12:42:29.013Z,27.15
2022-08-27T12:45:36.421Z,27.23
2022-08-27T12:48:48.276Z,27.30
2022-08-27T12:51:59.101Z,27.36
2022-08-27T12:55:16.297Z,27.46
2022-08-27T12:58:32.312Z,27.52
2022-08-27T13:01:56.025Z,27.55
2022-08-27T13:05:10.485Z,27.54
2022-08-27T13:08:30.112Z,27.58
2022-08-27T13:11:46.402Z,27.55
2022-08-27T13:14:56.992Z,27.50
2022-08-27T13:18:07.210Z,27.52
2022-08-27T13:21:19.950Z,27.54
2022-08-27T13:24:35.424Z,27.61
2022-08-27T13:27:41.684Z,27.67
2022-08-27T13:30:50.445Z,27.75
2022-08-27T13:33:59.482Z,27.82
2022-08-27T13:37:09.780Z,27.89
2022-08-27T13:40:31.785Z,27.90
2022-08-27T13:43:42.215Z,27.89
2022-08-27T13:46:51.628Z,27.96
2022-08-27T13:50:07.844Z,28.03
2022-08-27T13:53:30.544Z,28.13
2022-08-27T13:56:42.564Z,28.07
2022-08-27T13:59:50.079Z,28.07
2022-08-27T14:02:59.043Z,28.06
2022-08-27T14:06:06.466Z,27.97
2022-08-27T14:09:20.046Z,27.88
2022-08-27T14:12:35.491Z,27.77
2022-08-27T14:15:44.754Z,27.81
2022-08-27T14:18:59.210Z,27.86
2022-08-27T14:22:06.959Z,27.83
2022-08-27T14:25:13.197Z,27.81
2022-08-27T14:28:24.077Z,27.76
2022-08-27T14:31:29.965Z,27.69
2022-08-27T14:34:37.528Z,27.59
2022-08-27T14:37:45.170Z,27.62
2022-08-27T14:40:54.866Z,27.47
2022-08-27T14:44:03.854Z,27.37
2022-08-27T14:47:14.855Z,27.40
2022-08-27T14:50:21.313Z,27.49
2022-08-27T14:53:29.023Z,27.64
2022-08-27T14:56:35.054Z,27.74
2022-08-27T14:59:44.631Z,27.85
2022-08-27T15:02:52.277Z,27.90
2022-08-27T15:05:59.977Z,27.88
2022-08-27T15:09:08.059Z,27.83
2022-08-27T15:12:26.342Z,27.77
2022-08-27T15:15:35.559Z,27.82
2022-08-27T15:18:42.350Z,27.84
2022-08-27T15:22:06.460Z,27.84
2022-08-27T15:25:14.199Z,27.88
2022-08-27T15:28:20.148Z,28.02
2022-08-27T15:31:29.879Z,28.13
2022-08-27T15:34:35.888Z,28.06
2022-08-27T15:37:44.177Z,28.06
2022-08-27T15:40:50.272Z,28.08
2022-08-27T15:43:57.214Z,28.11
2022-08-27T15:47:06.520Z,28.14
2022-08-27T15:50:14.160Z,28.11
2022-08-27T15:53:25.131Z,28.10
2022-08-27T15:56:34.568Z,28.03
2022-08-27T15:59:40.769Z,27.97
2022-08-27T16:02:51.313Z,27.87
2022-08-27T16:05:57.336Z,27.78
2022-08-27T16:09:07.628Z,27.70
2022-08-27T16:12:26.900Z,27.71
2022-08-27T16:15:36.350Z,27.59
2022-08-27T16:18:46.643Z,27.37
2022-08-27T16:21:54.323Z,27.24
2022-08-27T16:25:00.820Z,27.16
2022-08-27T16:28:08.471Z,27.11
2022-08-27T16:31:16.405Z,27.04
2022-08-27T16:34:30.274Z,26.92
2022-08-27T16:37:36.234Z,26.78
2022-08-27T16:40:45.914Z,26.69
2022-08-27T16:43:52.345Z,26.61
2022-08-27T16:47:00.914Z,26.52
2022-08-27T16:50:27.199Z,26.44
2022-08-27T16:53:36.523Z,26.34
2022-08-27T16:56:43.628Z,26.24
2022-08-27T16:59:55.118Z,26.15
2022-08-27T17:03:01.221Z,26.06
2022-08-27T17:06:12.745Z,26.01
2022-08-27T17:09:18.823Z,25.97
2022-08-27T17:12:26.111Z,25.95
2022-08-27T17:15:32.555Z,25.87
2022-08-27T17:18:40.436Z,25.79
2022-08-27T17:21:50.292Z,25.72
2022-08-27T17:24:57.037Z,25.63
2022-08-27T17:28:03.379Z,25.59
2022-08-27T17:31:11.689Z,25.55
2022-08-27T17:34:20.956Z,25.46
2022-08-27T17:37:30.507Z,25.38
2022-08-27T17:40:36.679Z,25.31
2022-08-27T17:43:43.869Z,25.29
2022-08-27T17:46:50.242Z,25.26
2022-08-27T17:49:58.619Z,25.22
2022-08-27T17:53:07.561Z,25.22
2022-08-27T17:56:14.293Z,25.18
2022-08-27T17:59:20.770Z,25.15
2022-08-27T18:02:33.321Z,25.13
2022-08-27T18:05:39.177Z,25.04
2022-08-27T18:08:48.855Z,24.96
2022-08-27T18:11:56.535Z,24.91
2022-08-27T18:15:10.268Z,24.87
2022-08-27T18:18:20.531Z,24.82
2022-08-27T18:21:27.320Z,24.78
2022-08-27T18:24:37.179Z,24.75
2022-08-27T18:27:47.827Z,24.68
2022-08-27T18:30:54.280Z,24.64
2022-08-27T18:34:03.945Z,24.64
2022-08-27T18:37:10.062Z,24.64
2022-08-27T18:40:22.595Z,24.67
2022-08-27T18:43:35.177Z,24.68
2022-08-27T18:46:56.843Z,24.69
2022-08-27T18:50:03.349Z,24.69
2022-08-27T18:53:10.405Z,24.70
2022-08-27T18:56:21.862Z,24.69
2022-08-27T18:59:28.841Z,24.62
2022-08-27T19:02:36.037Z,24.53
2022-08-27T19:05:43.340Z,24.46
2022-08-27T19:08:50.171Z,24.42
2022-08-27T19:12:00.239Z,24.39
2022-08-27T19:15:09.332Z,24.39
2022-08-27T19:18:16.177Z,24.35
2022-08-27T19:21:22.102Z,24.25
2022-08-27T19:24:29.491Z,24.17
2022-08-27T19:27:39.606Z,24.12
2022-08-27T19:30:46.760Z,24.08
2022-08-27T19:33:53.116Z,24.05
2022-08-27T19:37:03.018Z,24.00
2022-08-27T19:40:10.174Z,23.95
2022-08-27T19:43:21.457Z,23.87
2022-08-27T19:46:29.266Z,23.83
2022-08-27T19:49:36.834Z,23.82
2022-08-27T19:52:42.717Z,23.79
2022-08-27T19:55:50.306Z,23.75
2022-08-27T19:59:08.734Z,23.71
2022-08-27T20:02:24.104Z,23.64
2022-08-27T20:05:30.061Z,23.61
2022-08-27T20:08:36.894Z,23.61
2022-08-27T20:11:43.493Z,23.63
2022-08-27T20:14:53.458Z,23.64
2022-08-27T20:18:03.027Z,23.62
2022-08-27T20:21:10.343Z,23.61
2022-08-27T20:24:16.700Z,23.60
2022-08-27T20:27:23.592Z,23.60
2022-08-27T20:30:34.251Z,23.59
2022-08-27T20:33:41.071Z,23.58
2022-08-27T20:36:47.027Z,23.54
2022-08-27T20:39:56.933Z,23.48
2022-08-27T20:43:03.827Z,23.45
2022-08-27T20:46:15.056Z,23.41
2022-08-27T20:49:21.789Z,23.38
2022-08-27T20:52:29.004Z,23.37
2022-08-27T20:55:35.228Z,23.36
2022-08-27T20:58:57.552Z,23.35
2022-08-27T21:02:10.724Z,23.32
2022-08-27T21:05:21.110Z,23.22
2022-08-27T21:08:27.017Z,23.14
2022-08-27T21:11:33.752Z,23.09
2022-08-27T21:14:40.083Z,22.99
2022-08-27T21:18:06.062Z,22.95
2022-08-27T21:21:15.494Z,22.85
2022-08-27T21:24:23.075Z,22.79
2022-08-27T21:27:28.998Z,22.74
2022-08-27T21:30:36.259Z,22.65
2022-08-27T21:33:45.230Z,22.58
2022-08-27T21:36:52.238Z,22.53
2022-08-27T21:39:58.234Z,22.47
2022-08-27T21:43:07.432Z,22.40
2022-08-27T21:46:13.482Z,22.33
2022-08-27T21:49:23.123Z,22.26
2022-08-27T21:52:29.066Z,22.18
2022-08-27T21:55:37.721Z,22.12
2022-08-27T21:58:44.267Z,22.06
2022-08-27T22:02:00.180Z,21.99
2022-08-27T22:05:11.852Z,21.95
2022-08-27T22:08:21.169Z,21.91
2022-08-27T22:11:27.602Z,21.88
2022-08-27T22:14:37.562Z,21.83
2022-08-27T22:17:47.144Z,21.79
2022-08-27T22:20:59.129Z,21.77
2022-08-27T22:24:06.228Z,21.73
2022-08-27T22:27:12.994Z,21.71
2022-08-27T22:30:19.233Z,21.69
2022-08-27T22:33:26.044Z,21.65
2022-08-27T22:36:35.260Z,21.61
2022-08-27T22:39:41.946Z,21.59
2022-08-27T22:42:48.507Z,21.58
2022-08-27T22:45:55.244Z,21.56
2022-08-27T22:49:01.368Z,21.53
2022-08-27T22:52:11.850Z,21.54
2022-08-27T22:55:20.414Z,21.52
2022-08-27T22:58:27.278Z,21.51
2022-08-27T23:01:33.602Z,21.49
2022-08-27T23:04:54.574Z,21.48
2022-08-27T23:08:04.221Z,21.49
2022-08-27T23:11:11.200Z,21.44
2022-08-27T23:14:17.219Z,21.42
2022-08-27T23:17:24.410Z,21.43
2022-08-27T23:20:33.131Z,21.41
2022-08-27T23:23:42.784Z,21.39
2022-08-27T23:27:04.345Z,21.35
2022-08-27T23:30:13.357Z,21.31
2022-08-27T23:33:19.274Z,21.26
2022-08-27T23:36:26.918Z,21.25
2022-08-27T23:39:35.584Z,21.27
2022-08-27T23:42:43.838Z,21.28
2022-08-27T23:45:50.460Z,21.26
2022-08-27T23:48:57.870Z,21.22
2022-08-27T23:52:03.774Z,21.23
2022-08-27T23:55:15.332Z,21.23
2022-08-27T23:58:21.361Z,21.20
